Time;durP1;ratioP1;P1;durP2;ratioP2;P2;SDS_P1;SDS_P2;PMS_P1;PMS_P2;Temp;Humidity;BMP_temperature;BMP_pressure;BME280_temperature;BME280_humidity;BME280_pressure;Samples;Min_cycle;Max_cycle;Signal;HPM_P1;HPM_P2
2023/02/11 00:00:17;;;;;;;;;;;8.30;99.90;;;;;;5056238;28;20362;-79
2023/02/11 00:03:07;;;;;;;;;;;8.30;99.90;;;;;;5054950;28;19909;-79
2023/02/11 00:05:58;;;;;;;;;;;8.10;99.90;;;;;;5056005;28;19920;-79
2023/02/11 00:08:34;;;;;;;;;;;8.10;99.90;;;;;;5037879;28;19908;-79
2023/02/11 00:11:08;;;;;;;;;;;8.20;99.90;;;;;;5056273;28;19909;-79
2023/02/11 00:13:46;;;;;;;;;;;8.20;99.90;;;;;;5038075;28;20454;-79
2023/02/11 00:16:37;;;;;;;;;;;8.20;99.90;;;;;;5037518;28;19909;-78
2023/02/11 00:19:17;;;;;;;;;;;8.20;99.90;;;;;;5045982;28;19909;-79
2023/02/11 00:21:48;;;;;;;;;;;8.10;99.90;;;;;;5055050;28;19967;-79
2023/02/11 00:27:18;;;;;;;;;;;8.00;99.90;;;;;;5056669;28;20259;-79
2023/02/11 00:30:16;;;;;;;;;;;8.00;99.90;;;;;;5037172;28;19908;-79
2023/02/11 00:33:10;;;;;;;;;;;8.00;99.90;;;;;;5055517;28;19921;-79
2023/02/11 00:35:42;;;;;;;;;;;7.90;99.90;;;;;;5018869;28;19984;-79
2023/02/11 00:41:28;;;;;;;;;;;7.80;99.90;;;;;;5049715;28;19963;-80
2023/02/11 00:43:59;;;;;;;;;;;7.80;99.90;;;;;;5055360;28;19909;-79
2023/02/11 00:46:36;;;;;;;;;;;7.70;99.90;;;;;;5055903;28;20286;-79
2023/02/11 00:49:14;;;;;;;;;;;7.70;99.90;;;;;;5037621;28;19936;-79
2023/02/11 00:57:38;;;;;;;;;;;7.60;99.90;;;;;;5075422;28;19909;-79
2023/02/11 01:00:21;;;;;;;;;;;7.50;99.90;;;;;;5074664;28;19918;-79
2023/02/11 01:03:01;;;;;;;;;;;7.40;99.90;;;;;;5056460;28;20381;-79
2023/02/11 01:05:37;;;;;;;;;;;7.40;99.90;;;;;;5071262;28;19913;-79
2023/02/11 01:08:22;;;;;;;;;;;7.40;99.90;;;;;;5056612;28;19909;-79
2023/02/11 01:11:18;;;;;;;;;;;7.40;99.90;;;;;;5074370;28;19999;-80
2023/02/11 01:13:58;;;;;;;;;;;7.40;99.90;;;;;;5056449;28;19912;-79
2023/02/11 01:16:55;;;;;;;;;;;7.40;99.90;;;;;;5074548;28;19908;-79
2023/02/11 01:22:27;;;;;;;;;;;7.30;99.90;;;;;;5075147;28;19908;-79
2023/02/11 01:28:20;;;;;;;;;;;;;;;;;;;;;
2023/02/11 01:31:03;;;;;;;;;;;7.20;99.90;;;;;;5074771;28;19930;-79
2023/02/11 01:33:40;;;;;;;;;;;7.20;99.90;;;;;;5054134;28;20011;-79
2023/02/11 01:36:33;;;;;;;;;;;7.20;99.90;;;;;;5074236;28;19913;-79
2023/02/11 01:39:12;;;;;;;;;;;7.20;99.90;;;;;;5074368;28;20281;-79
2023/02/11 01:41:51;;;;;;;;;;;7.30;99.90;;;;;;5055461;28;19909;-80
2023/02/11 01:44:51;;;;;;;;;;;7.30;99.90;;;;;;5074188;28;19916;-79
2023/02/11 01:47:39;;;;;;;;;;;7.40;99.90;;;;;;5055256;28;19908;-79
2023/02/11 01:50:13;;;;;;;;;;;7.40;99.90;;;;;;5055691;28;20349;-79
2023/02/11 01:58:35;;;;;;;;;;;7.30;99.90;;;;;;5074154;28;19962;-79
2023/02/11 02:03:40;;;;;;;;;;;7.40;99.90;;;;;;5081091;22;20370;-79
2023/02/11 02:06:29;;;;;;;;;;;7.40;99.90;;;;;;5055002;28;20010;-79
2023/02/11 02:09:37;;;;;;;;;;;7.40;99.90;;;;;;5073228;28;20362;-79
2023/02/11 02:14:52;;;;;;;;;;;7.30;99.90;;;;;;5074485;28;20309;-79
2023/02/11 02:17:28;;;;;;;;;;;7.40;99.90;;;;;;5074173;28;20330;-78
2023/02/11 02:20:15;;;;;;;;;;;7.30;99.90;;;;;;5054612;28;20320;-78
2023/02/11 02:23:05;;;;;;;;;;;7.30;99.90;;;;;;5052411;22;20396;-78
2023/02/11 02:25:46;;;;;;;;;;;7.30;99.90;;;;;;5039663;28;20386;-78
2023/02/11 02:28:14;;;;;;;;;;;7.20;99.90;;;;;;5039573;28;19909;-79
2023/02/11 02:31:02;;;;;;;;;;;7.30;99.90;;;;;;5057435;28;19958;-78
2023/02/11 02:33:40;;;;;;;;;;;7.20;99.90;;;;;;5037466;28;19916;-78
2023/02/11 02:36:06;;;;;;;;;;;7.30;99.90;;;;;;5037432;28;19920;-78
2023/02/11 02:38:43;;;;;;;;;;;7.20;99.90;;;;;;5020840;28;19909;-78
2023/02/11 02:41:11;;;;;;;;;;;7.20;99.90;;;;;;5040299;28;20085;-79
2023/02/11 02:43:41;;;;;;;;;;;7.10;99.90;;;;;;5023303;28;20327;-79
2023/02/11 02:46:11;;;;;;;;;;;7.00;99.90;;;;;;5023719;28;19945;-79
2023/02/11 02:48:36;;;;;;;;;;;7.00;99.90;;;;;;5023047;28;19909;-79
2023/02/11 02:51:10;;;;;;;;;;;7.00;99.90;;;;;;5040271;28;19920;-79
2023/02/11 02:53:53;;;;;;;;;;;6.90;99.90;;;;;;5022819;28;19913;-79
2023/02/11 02:56:37;;;;;;;;;;;6.90;99.90;;;;;;5040836;28;19909;-79
2023/02/11 02:59:11;;;;;;;;;;;6.90;99.90;;;;;;5023145;28;19948;-79
2023/02/11 03:01:41;;;;;;;;;;;6.80;99.90;;;;;;5039924;28;19913;-79
2023/02/11 03:04:28;;;;;;;;;;;6.80;99.90;;;;;;5040608;28;19917;-79
2023/02/11 03:06:59;;;;;;;;;;;6.80;99.90;;;;;;5022358;28;19909;-79
2023/02/11 03:09:29;;;;;;;;;;;6.90;99.90;;;;;;5022414;28;20278;-79
2023/02/11 03:11:54;;;;;;;;;;;6.90;99.90;;;;;;5040129;28;19909;-79
2023/02/11 03:14:21;;;;;;;;;;;6.90;99.90;;;;;;5039890;28;19916;-79
2023/02/11 03:16:47;;;;;;;;;;;6.90;99.90;;;;;;5022299;28;20003;-78
2023/02/11 03:19:25;;;;;;;;;;;7.00;99.90;;;;;;5022213;28;19963;-79
2023/02/11 03:21:51;;;;;;;;;;;7.00;99.90;;;;;;5020668;28;19909;-79
2023/02/11 03:24:26;;;;;;;;;;;7.00;99.90;;;;;;5021714;28;19977;-79
2023/02/11 03:26:53;;;;;;;;;;;7.00;99.90;;;;;;5022164;28;19909;-79
2023/02/11 03:29:18;;;;;;;;;;;7.10;99.90;;;;;;5022069;28;19909;-79
2023/02/11 03:31:54;;;;;;;;;;;7.10;99.90;;;;;;5038738;28;19975;-79
2023/02/11 03:34:29;;;;;;;;;;;7.10;99.90;;;;;;5022541;28;19916;-79
2023/02/11 03:36:58;;;;;;;;;;;7.20;99.90;;;;;;5039674;28;19936;-78
2023/02/11 03:39:34;;;;;;;;;;;7.10;99.90;;;;;;5039310;28;19952;-81
2023/02/11 03:42:01;;;;;;;;;;;7.20;99.90;;;;;;5020700;28;19991;-79
2023/02/11 03:44:30;;;;;;;;;;;7.20;99.90;;;;;;5021073;28;19963;-79
2023/02/11 03:46:56;;;;;;;;;;;7.20;99.90;;;;;;5021641;28;19963;-79
2023/02/11 03:49:23;;;;;;;;;;;7.20;99.90;;;;;;5038958;28;19913;-79
2023/02/11 03:51:50;;;;;;;;;;;7.20;99.90;;;;;;5038337;28;19915;-79
2023/02/11 03:54:17;;;;;;;;;;;7.30;99.90;;;;;;5038700;28;20610;-79
2023/02/11 03:56:48;;;;;;;;;;;7.20;99.90;;;;;;5020839;28;19909;-79
2023/02/11 03:59:14;;;;;;;;;;;7.20;99.90;;;;;;5021181;28;20368;-79
2023/02/11 04:01:39;;;;;;;;;;;7.20;99.90;;;;;;5038469;28;19909;-79
2023/02/11 04:04:05;;;;;;;;;;;7.20;99.90;;;;;;5038362;28;20484;-79
2023/02/11 04:06:30;;;;;;;;;;;7.20;99.90;;;;;;5020654;28;19932;-79
2023/02/11 04:08:56;;;;;;;;;;;7.20;99.90;;;;;;5020445;28;19917;-79
2023/02/11 04:11:21;;;;;;;;;;;7.30;99.90;;;;;;5020430;28;19913;-79
2023/02/11 04:13:46;;;;;;;;;;;7.40;99.90;;;;;;5037606;28;19909;-79
2023/02/11 04:16:12;;;;;;;;;;;7.40;99.90;;;;;;5020444;28;19921;-79
2023/02/11 04:18:37;;;;;;;;;;;7.50;99.90;;;;;;5037502;28;19975;-79
2023/02/11 04:21:03;;;;;;;;;;;7.50;99.90;;;;;;5037650;28;19913;-79
2023/02/11 04:23:28;;;;;;;;;;;7.60;99.90;;;;;;5037659;28;19967;-78
2023/02/11 04:25:54;;;;;;;;;;;7.60;99.90;;;;;;5038050;28;20286;-78
2023/02/11 04:28:19;;;;;;;;;;;7.50;99.90;;;;;;5037926;28;19913;-79
2023/02/11 04:30:45;;;;;;;;;;;7.50;99.90;;;;;;5020205;28;19921;-79
2023/02/11 04:33:19;;;;;;;;;;;7.60;99.90;;;;;;5073981;22;19928;-79
2023/02/11 04:35:47;;;;;;;;;;;7.50;99.90;;;;;;5057428;28;19947;-78
2023/02/11 04:38:39;;;;;;;;;;;7.50;99.90;;;;;;5057176;28;20374;-78
2023/02/11 04:41:33;;;;;;;;;;;7.50;99.90;;;;;;5038684;28;20703;-79
2023/02/11 04:43:59;;;;;;;;;;;7.60;99.90;;;;;;5051073;28;20019;-79
2023/02/11 04:46:42;;;;;;;;;;;7.70;99.90;;;;;;5057262;28;19940;-78
2023/02/11 04:49:32;;;;;;;;;;;7.70;99.90;;;;;;5055319;28;19909;-79
2023/02/11 04:52:03;;;;;;;;;;;7.60;99.90;;;;;;5073040;22;19925;-79
2023/02/11 04:54:50;;;;;;;;;;;7.50;99.90;;;;;;5054559;28;19952;-79
2023/02/11 04:57:43;;;;;;;;;;;7.50;99.90;;;;;;5055188;28;20298;-79
2023/02/11 05:00:37;;;;;;;;;;;7.60;99.90;;;;;;5054786;28;19955;-77
2023/02/11 05:03:28;;;;;;;;;;;7.60;99.90;;;;;;5038282;28;19913;-78
2023/02/11 05:06:14;;;;;;;;;;;7.70;99.90;;;;;;5056474;28;20429;-79
2023/02/11 05:08:55;;;;;;;;;;;7.70;99.90;;;;;;5056114;28;19916;-79
2023/02/11 05:14:25;;;;;;;;;;;7.70;99.90;;;;;;5056791;28;19909;-79
2023/02/11 05:19:35;;;;;;;;;;;7.60;99.90;;;;;;5056532;28;19915;-78
2023/02/11 05:22:21;;;;;;;;;;;7.60;99.90;;;;;;5039161;28;19909;-79
2023/02/11 05:25:08;;;;;;;;;;;;;;;;;;;;;
2023/02/11 05:27:50;;;;;;;;;;;7.50;99.90;;;;;;5058453;28;19999;-79
2023/02/11 05:30:24;;;;;;;;;;;7.50;99.90;;;;;;5057343;28;19909;-79
2023/02/11 05:32:50;;;;;;;;;;;7.50;99.90;;;;;;5039749;28;19909;-78
2023/02/11 05:38:27;;;;;;;;;;;7.50;99.90;;;;;;5058092;28;19909;-79
2023/02/11 05:40:55;;;;;;;;;;;7.40;99.90;;;;;;5057532;28;20390;-78
2023/02/11 05:43:26;;;;;;;;;;;7.50;99.90;;;;;;5039359;28;20370;-79
2023/02/11 05:46:00;;;;;;;;;;;7.50;99.90;;;;;;5057814;28;19963;-79
2023/02/11 05:48:52;;;;;;;;;;;7.50;99.90;;;;;;5055067;28;19912;-80
2023/02/11 05:51:20;;;;;;;;;;;7.50;99.90;;;;;;5055877;28;19915;-79
2023/02/11 05:53:53;;;;;;;;;;;7.50;99.90;;;;;;5039050;28;19999;-79
2023/02/11 05:56:30;;;;;;;;;;;7.60;99.90;;;;;;5041184;28;19909;-79
2023/02/11 05:59:14;;;;;;;;;;;7.60;99.90;;;;;;5059930;28;19909;-78
2023/02/11 06:01:49;;;;;;;;;;;7.60;99.90;;;;;;5060843;28;19951;-79
2023/02/11 06:04:35;;;;;;;;;;;7.50;99.90;;;;;;5043924;28;20314;-78
2023/02/11 06:09:52;;;;;;;;;;;7.60;99.90;;;;;;5054424;28;19995;-79
2023/02/11 06:12:35;;;;;;;;;;;7.60;99.90;;;;;;5041424;28;19948;-79
2023/02/11 06:15:24;;;;;;;;;;;7.50;99.90;;;;;;5059182;28;19913;-79
2023/02/11 06:18:09;;;;;;;;;;;7.50;99.90;;;;;;5041114;28;19916;-79
2023/02/11 06:23:43;;;;;;;;;;;7.50;99.90;;;;;;5059202;28;19916;-78
2023/02/11 06:26:29;;;;;;;;;;;7.40;99.90;;;;;;5040667;28;19912;-79
2023/02/11 06:29:12;;;;;;;;;;;7.40;99.90;;;;;;5041022;28;19909;-79
2023/02/11 06:32:07;;;;;;;;;;;7.50;99.90;;;;;;5058444;28;19909;-79
2023/02/11 06:34:56;;;;;;;;;;;7.50;99.90;;;;;;5037686;28;19909;-79
2023/02/11 06:37:34;;;;;;;;;;;7.50;99.90;;;;;;5055677;28;19927;-79
2023/02/11 06:40:21;;;;;;;;;;;7.50;99.90;;;;;;5058670;28;20445;-78
2023/02/11 06:43:06;;;;;;;;;;;7.50;99.90;;;;;;5056784;22;19933;-78
2023/02/11 06:45:40;;;;;;;;;;;7.50;99.90;;;;;;5001116;28;20367;-78
2023/02/11 06:48:18;;;;;;;;;;;7.50;99.90;;;;;;5017578;28;19909;-79
2023/02/11 06:53:50;;;;;;;;;;;7.60;99.90;;;;;;4999220;28;19909;-80
2023/02/11 07:05:02;;;;;;;;;;;7.70;99.90;;;;;;4958387;29;19938;-79
2023/02/11 07:07:46;;;;;;;;;;;7.50;99.90;;;;;;4976098;28;20431;-78
2023/02/11 07:13:13;;;;;;;;;;;7.40;99.90;;;;;;4995946;28;19910;-79
2023/02/11 07:16:03;;;;;;;;;;;7.30;99.90;;;;;;4980828;28;19909;-78
2023/02/11 07:21:23;;;;;;;;;;;7.20;99.90;;;;;;4998542;28;19997;-79
2023/02/11 07:23:57;;;;;;;;;;;7.20;99.90;;;;;;4999019;28;19919;-78
2023/02/11 07:26:34;;;;;;;;;;;7.10;99.90;;;;;;4981235;28;19913;-78
2023/02/11 07:41:39;;;;;;;;;;;;;;;;;;;;;
2023/02/11 08:07:24;;;;;;;;;;;7.80;99.90;;;;;;4898964;29;19920;-79
2023/02/11 08:59:55;;;;;;;;;;;8.10;99.90;;;;;;4954197;28;19956;-79
2023/02/11 09:09:20;;;;;;;;;;;;;;;;;;;;;
2023/02/11 09:18:44;;;;;;;;;;;;;;;;;;;;;
2023/02/11 09:49:12;;;;;;;;;;;;;;;;;;;;;
2023/02/11 10:01:24;;;;;;;;;;;8.30;99.90;;;;;;4821517;29;19938;-79
2023/02/11 10:04:17;;;;;;;;;;;8.40;99.90;;;;;;4821224;29;20008;-79
2023/02/11 10:07:07;;;;;;;;;;;8.40;99.90;;;;;;4821608;29;19924;-79
2023/02/11 10:16:13;;;;;;;;;;;8.60;99.90;;;;;;4876446;29;20282;-78
2023/02/11 10:18:42;;;;;;;;;;;8.50;99.90;;;;;;4877736;29;19922;-78
2023/02/11 10:24:18;;;;;;;;;;;8.40;99.90;;;;;;5054081;28;19932;-79
2023/02/11 10:36:26;;;;;;;;;;;8.40;99.90;;;;;;5005142;28;20326;-79
2023/02/11 10:45:16;;;;;;;;;;;;;;;;;;;;;
2023/02/11 11:04:04;;;;;;;;;;;;;;;;;;;;;
2023/02/11 11:09:55;;;;;;;;;;;8.50;99.90;;;;;;4955850;29;20329;-79
2023/02/11 11:12:24;;;;;;;;;;;8.40;99.90;;;;;;4973091;22;19928;-78
2023/02/11 11:14:57;;;;;;;;;;;8.40;99.90;;;;;;5070985;28;20317;-78
2023/02/11 11:17:22;;;;;;;;;;;8.50;99.90;;;;;;5047818;28;20400;-77
2023/02/11 11:19:48;;;;;;;;;;;8.60;99.90;;;;;;5055299;28;19909;-78
2023/02/11 11:22:21;;;;;;;;;;;8.70;99.90;;;;;;5055269;28;20320;-79
2023/02/11 11:24:52;;;;;;;;;;;8.60;99.90;;;;;;5055377;28;19917;-77
2023/02/11 11:27:21;;;;;;;;;;;8.70;99.90;;;;;;5037248;28;19916;-77
2023/02/11 11:29:48;;;;;;;;;;;8.70;99.90;;;;;;5055136;28;20000;-78
2023/02/11 11:32:14;;;;;;;;;;;8.80;99.90;;;;;;5037320;28;19909;-78
2023/02/11 11:34:41;;;;;;;;;;;8.80;99.90;;;;;;5054979;28;19909;-78
2023/02/11 11:37:18;;;;;;;;;;;8.90;99.90;;;;;;5054611;28;20336;-78
2023/02/11 11:39:51;;;;;;;;;;;8.80;99.90;;;;;;5063102;28;19913;-78
2023/02/11 11:42:24;;;;;;;;;;;8.80;99.90;;;;;;5074047;28;20404;-77
2023/02/11 11:44:57;;;;;;;;;;;8.70;99.90;;;;;;5048836;28;20034;-78
2023/02/11 11:47:32;;;;;;;;;;;8.60;99.90;;;;;;5072987;28;19923;-77
2023/02/11 11:50:12;;;;;;;;;;;8.70;99.90;;;;;;5070614;28;20403;-78
2023/02/11 11:52:56;;;;;;;;;;;8.70;99.90;;;;;;5069783;28;19913;-77
2023/02/11 11:55:32;;;;;;;;;;;8.80;99.90;;;;;;5074061;28;19920;-79
2023/02/11 11:57:57;;;;;;;;;;;8.80;99.90;;;;;;5074362;28;19908;-77
2023/02/11 12:00:27;;;;;;;;;;;8.70;99.90;;;;;;5074557;28;19919;-78
2023/02/11 12:02:55;;;;;;;;;;;8.70;99.90;;;;;;5056748;28;19913;-78
2023/02/11 12:05:35;;;;;;;;;;;8.50;99.90;;;;;;5056495;28;20377;-78
2023/02/11 12:08:00;;;;;;;;;;;8.70;99.90;;;;;;5074606;28;19908;-78
2023/02/11 12:10:30;;;;;;;;;;;8.70;99.90;;;;;;5073591;28;20074;-77
2023/02/11 12:13:09;;;;;;;;;;;8.80;99.90;;;;;;5073152;28;19924;-77
2023/02/11 12:15:47;;;;;;;;;;;8.90;99.90;;;;;;5056738;28;19913;-78
2023/02/11 12:18:12;;;;;;;;;;;9.00;99.90;;;;;;5074308;28;19908;-78
2023/02/11 12:21:01;;;;;;;;;;;9.10;99.90;;;;;;5075951;28;20281;-78
2023/02/11 12:23:27;;;;;;;;;;;9.20;99.90;;;;;;5057057;28;19958;-78
2023/02/11 12:25:59;;;;;;;;;;;9.10;99.90;;;;;;5056920;28;20312;-78
2023/02/11 12:28:37;;;;;;;;;;;9.10;99.90;;;;;;5075654;28;19909;-78
2023/02/11 12:31:11;;;;;;;;;;;9.20;99.90;;;;;;5073842;28;19920;-78
2023/02/11 12:33:49;;;;;;;;;;;9.10;99.90;;;;;;5074602;28;19915;-79
2023/02/11 12:36:23;;;;;;;;;;;9.10;99.90;;;;;;5056380;28;19920;-79
2023/02/11 12:38:49;;;;;;;;;;;9.10;99.90;;;;;;5056827;28;19908;-78
2023/02/11 12:44:34;;;;;;;;;;;9.20;99.90;;;;;;5043236;28;19916;-78
2023/02/11 12:47:07;;;;;;;;;;;9.20;99.90;;;;;;5056096;28;20266;-78
2023/02/11 12:49:40;;;;;;;;;;;9.20;99.90;;;;;;5055944;28;19987;-79
2023/02/11 12:52:17;;;;;;;;;;;9.10;99.90;;;;;;5074116;28;20378;-79
2023/02/11 12:54:46;;;;;;;;;;;9.00;99.90;;;;;;5073747;28;19912;-78
2023/02/11 12:57:25;;;;;;;;;;;9.10;99.90;;;;;;5074041;28;20363;-78
2023/02/11 12:59:55;;;;;;;;;;;9.10;99.90;;;;;;5074204;28;19908;-78
2023/02/11 13:02:28;;;;;;;;;;;9.30;99.90;;;;;;5073903;28;19972;-79
2023/02/11 13:04:56;;;;;;;;;;;9.20;99.90;;;;;;5073151;28;19909;-78
2023/02/11 13:07:24;;;;;;;;;;;9.20;99.90;;;;;;5073674;28;19908;-78
2023/02/11 13:10:03;;;;;;;;;;;9.10;99.90;;;;;;5073553;28;20288;-78
2023/02/11 13:15:15;;;;;;;;;;;9.20;99.90;;;;;;5072628;28;19920;-79
2023/02/11 13:17:52;;;;;;;;;;;9.00;99.90;;;;;;5072912;28;19909;-79
2023/02/11 13:20:20;;;;;;;;;;;9.00;99.90;;;;;;5053928;28;20379;-78
2023/02/11 13:22:49;;;;;;;;;;;9.00;99.90;;;;;;5049093;28;19916;-79
2023/02/11 13:25:29;;;;;;;;;;;8.90;99.90;;;;;;5072663;28;19908;-78
2023/02/11 13:28:14;;;;;;;;;;;8.90;99.90;;;;;;5074487;28;19909;-79
2023/02/11 13:30:45;;;;;;;;;;;9.10;99.90;;;;;;5074110;28;19974;-79
2023/02/11 13:33:14;;;;;;;;;;;9.20;99.90;;;;;;5072796;28;19912;-79
2023/02/11 13:35:41;;;;;;;;;;;9.20;99.90;;;;;;5056113;28;19955;-81
2023/02/11 13:38:16;;;;;;;;;;;9.30;99.90;;;;;;5057573;28;19915;-78
2023/02/11 13:40:42;;;;;;;;;;;9.40;99.90;;;;;;5055072;28;19913;-79
2023/02/11 13:43:21;;;;;;;;;;;9.50;99.90;;;;;;5072538;28;19928;-81
2023/02/11 13:45:48;;;;;;;;;;;9.60;99.90;;;;;;5073390;28;19909;-81
2023/02/11 13:48:17;;;;;;;;;;;9.70;99.90;;;;;;5073478;28;19908;-79
2023/02/11 13:50:47;;;;;;;;;;;9.70;99.90;;;;;;5055633;28;19912;-81
2023/02/11 13:53:13;;;;;;;;;;;9.80;99.90;;;;;;5055488;28;19909;-79
2023/02/11 13:55:40;;;;;;;;;;;9.70;99.90;;;;;;5055660;28;20366;-80
2023/02/11 13:58:05;;;;;;;;;;;9.80;99.90;;;;;;5073847;28;19912;-80
2023/02/11 14:00:31;;;;;;;;;;;9.80;99.90;;;;;;5055805;28;19931;-80
2023/02/11 14:09:09;;;;;;;;;;;9.60;99.90;;;;;;5074514;28;19915;-80
2023/02/11 14:11:41;;;;;;;;;;;9.60;99.90;;;;;;5073653;28;19935;-81
2023/02/11 14:14:15;;;;;;;;;;;9.60;99.90;;;;;;5055500;28;20397;-79
2023/02/11 14:17:00;;;;;;;;;;;9.50;99.90;;;;;;5048208;28;19912;-80
2023/02/11 14:19:36;;;;;;;;;;;9.50;99.90;;;;;;5041277;28;20283;-80
2023/02/11 14:22:12;;;;;;;;;;;9.60;99.90;;;;;;5039759;28;19909;-81
2023/02/11 14:24:37;;;;;;;;;;;9.60;99.90;;;;;;5043098;28;19909;-80
2023/02/11 14:27:13;;;;;;;;;;;9.60;99.90;;;;;;5076894;28;19909;-79
2023/02/11 14:29:39;;;;;;;;;;;9.60;99.90;;;;;;5059846;28;19909;-81
2023/02/11 14:32:07;;;;;;;;;;;9.70;99.90;;;;;;5077273;28;19909;-81
2023/02/11 14:34:48;;;;;;;;;;;9.70;99.90;;;;;;5077076;28;19915;-79
2023/02/11 14:37:32;;;;;;;;;;;9.50;99.90;;;;;;5058158;28;19908;-80
2023/02/11 14:40:17;;;;;;;;;;;9.60;99.90;;;;;;5077572;28;20350;-80
2023/02/11 14:42:42;;;;;;;;;;;9.80;99.90;;;;;;5077281;28;19908;-80
2023/02/11 14:45:09;;;;;;;;;;;9.80;99.90;;;;;;5077060;28;20281;-80
2023/02/11 14:47:54;;;;;;;;;;;9.80;99.90;;;;;;5076884;28;19908;-80
2023/02/11 14:50:27;;;;;;;;;;;9.80;99.90;;;;;;5076280;28;19912;-79
2023/02/11 14:52:54;;;;;;;;;;;9.80;99.90;;;;;;5076401;28;19909;-80
2023/02/11 14:55:30;;;;;;;;;;;9.90;99.90;;;;;;5076836;28;19913;-80
2023/02/11 14:58:13;;;;;;;;;;;9.90;99.90;;;;;;5076356;28;19920;-79
2023/02/11 15:00:49;;;;;;;;;;;9.90;99.90;;;;;;5075395;28;20376;-78
2023/02/11 15:03:23;;;;;;;;;;;9.70;99.90;;;;;;5058074;28;19908;-81
2023/02/11 15:05:53;;;;;;;;;;;9.80;99.90;;;;;;5078022;28;19908;-82
2023/02/11 15:08:19;;;;;;;;;;;9.90;99.90;;;;;;5065002;28;20018;-81
2023/02/11 15:10:45;;;;;;;;;;;9.90;99.90;;;;;;5067714;28;20432;-80
2023/02/11 15:13:17;;;;;;;;;;;9.90;99.90;;;;;;5057396;28;20294;-83
2023/02/11 15:15:44;;;;;;;;;;;9.90;99.90;;;;;;5064497;28;19924;-82
2023/02/11 15:18:13;;;;;;;;;;;10.00;99.90;;;;;;5060809;28;19913;-79
2023/02/11 15:20:39;;;;;;;;;;;10.00;99.90;;;;;;5076705;28;19916;-80
2023/02/11 15:23:08;;;;;;;;;;;10.10;99.90;;;;;;5059353;28;20011;-79
2023/02/11 15:25:41;;;;;;;;;;;10.10;99.90;;;;;;5076770;28;20330;-80
2023/02/11 15:28:12;;;;;;;;;;;10.10;99.90;;;;;;5075585;28;19908;-80
2023/02/11 15:30:38;;;;;;;;;;;10.10;99.90;;;;;;5076173;28;19939;-80
2023/02/11 15:33:04;;;;;;;;;;;10.10;99.90;;;;;;5076035;28;20515;-80
2023/02/11 15:35:31;;;;;;;;;;;10.00;99.90;;;;;;5076155;28;19913;-79
2023/02/11 15:37:57;;;;;;;;;;;9.90;99.90;;;;;;5059006;28;19908;-79
2023/02/11 15:40:26;;;;;;;;;;;10.00;99.90;;;;;;5076894;28;20257;-79
2023/02/11 15:43:05;;;;;;;;;;;10.00;99.90;;;;;;5076323;28;19908;-79
2023/02/11 15:46:06;;;;;;;;;;;10.00;99.90;;;;;;5076816;28;19916;-79
2023/02/11 15:48:31;;;;;;;;;;;10.10;99.90;;;;;;4994555;28;19913;-78
2023/02/11 15:51:00;;;;;;;;;;;10.00;99.90;;;;;;5025834;28;19919;-79
2023/02/11 15:53:30;;;;;;;;;;;10.00;99.90;;;;;;5056746;28;20317;-78
2023/02/11 15:56:07;;;;;;;;;;;10.00;99.90;;;;;;5064971;28;19976;-79
2023/02/11 15:58:37;;;;;;;;;;;10.00;99.90;;;;;;5076719;28;20312;-79
2023/02/11 16:01:03;;;;;;;;;;;10.00;99.90;;;;;;5076042;28;19908;-78
2023/02/11 16:03:31;;;;;;;;;;;10.00;99.90;;;;;;5076004;28;19954;-79
2023/02/11 16:06:15;;;;;;;;;;;9.90;99.90;;;;;;5075286;28;19908;-79
2023/02/11 16:08:42;;;;;;;;;;;9.90;99.90;;;;;;5075596;28;20263;-78
2023/02/11 16:11:23;;;;;;;;;;;9.90;99.90;;;;;;5075723;28;19909;-79
2023/02/11 16:13:49;;;;;;;;;;;9.80;99.90;;;;;;5057805;28;19920;-79
2023/02/11 16:16:16;;;;;;;;;;;9.80;99.90;;;;;;5075739;28;19913;-79
2023/02/11 16:18:44;;;;;;;;;;;9.80;99.90;;;;;;5075815;28;19908;-79
2023/02/11 16:21:15;;;;;;;;;;;9.80;99.90;;;;;;5075130;28;19916;-79
2023/02/11 16:23:41;;;;;;;;;;;9.80;99.90;;;;;;5075308;28;20294;-79
2023/02/11 16:26:11;;;;;;;;;;;9.80;99.90;;;;;;5056959;28;19909;-79
2023/02/11 16:28:37;;;;;;;;;;;9.80;99.90;;;;;;5075321;28;19912;-79
2023/02/11 16:31:03;;;;;;;;;;;9.80;99.90;;;;;;5074428;28;19999;-79
2023/02/11 16:33:28;;;;;;;;;;;9.60;99.90;;;;;;5074559;28;19975;-79
2023/02/11 16:35:54;;;;;;;;;;;9.70;99.90;;;;;;5074586;28;19955;-79
2023/02/11 16:38:23;;;;;;;;;;;9.70;99.90;;;;;;5075201;28;19909;-79
2023/02/11 16:40:49;;;;;;;;;;;9.70;99.90;;;;;;5057024;28;19908;-79
2023/02/11 16:43:17;;;;;;;;;;;9.60;99.90;;;;;;5055474;28;20304;-79
2023/02/11 16:45:42;;;;;;;;;;;9.70;99.90;;;;;;5073735;28;20378;-79
2023/02/11 16:48:08;;;;;;;;;;;9.80;99.90;;;;;;5056517;28;19908;-79
2023/02/11 16:50:34;;;;;;;;;;;9.60;99.90;;;;;;5074318;28;19995;-79
2023/02/11 16:53:04;;;;;;;;;;;9.60;99.90;;;;;;5075816;28;19947;-79
2023/02/11 16:55:30;;;;;;;;;;;9.60;99.90;;;;;;5075682;28;19924;-79
2023/02/11 16:57:56;;;;;;;;;;;9.60;99.90;;;;;;5075541;28;19908;-78
2023/02/11 17:00:21;;;;;;;;;;;9.60;99.90;;;;;;5071272;28;19920;-79
2023/02/11 17:02:47;;;;;;;;;;;9.70;99.90;;;;;;5036426;28;19916;-80
2023/02/11 17:05:17;;;;;;;;;;;9.70;99.90;;;;;;5054581;28;20011;-79
2023/02/11 17:07:43;;;;;;;;;;;9.70;99.90;;;;;;5054432;28;19916;-81
2023/02/11 17:10:12;;;;;;;;;;;9.70;99.90;;;;;;5036016;28;20359;-79
2023/02/11 17:15:30;;;;;;;;;;;9.70;99.90;;;;;;5065052;28;19924;-82
2023/02/11 17:18:02;;;;;;;;;;;9.70;99.90;;;;;;5068445;28;19909;-81
2023/02/11 17:20:27;;;;;;;;;;;9.70;99.90;;;;;;5073423;28;19952;-81
2023/02/11 17:22:53;;;;;;;;;;;9.80;99.90;;;;;;5056013;28;19912;-81
2023/02/11 17:25:18;;;;;;;;;;;9.80;99.90;;;;;;5055888;28;19912;-81
2023/02/11 17:27:44;;;;;;;;;;;9.80;99.90;;;;;;5072108;28;19915;-81
2023/02/11 17:30:10;;;;;;;;;;;9.80;99.90;;;;;;5046573;28;19909;-81
2023/02/11 17:32:35;;;;;;;;;;;9.70;99.90;;;;;;5045271;28;19912;-82
2023/02/11 17:35:01;;;;;;;;;;;9.70;99.90;;;;;;5059520;28;19971;-82
2023/02/11 17:37:27;;;;;;;;;;;9.70;99.90;;;;;;5059118;28;19909;-82
2023/02/11 17:39:52;;;;;;;;;;;9.70;99.90;;;;;;5058919;28;20332;-81
2023/02/11 17:57:33;;;;;;;;;;;9.60;99.90;;;;;;5079855;28;19925;-80
2023/02/11 17:59:58;;;;;;;;;;;9.60;99.90;;;;;;5063012;28;19908;-81
2023/02/11 18:02:24;;;;;;;;;;;9.60;99.90;;;;;;5079684;28;20294;-81
2023/02/11 18:04:51;;;;;;;;;;;9.60;99.90;;;;;;5062818;28;19917;-81
2023/02/11 18:07:18;;;;;;;;;;;9.60;99.90;;;;;;5081598;28;19975;-81
2023/02/11 18:09:43;;;;;;;;;;;9.70;99.90;;;;;;5062571;28;20274;-81
2023/02/11 18:12:10;;;;;;;;;;;9.70;99.90;;;;;;5061419;28;19908;-80
2023/02/11 18:14:37;;;;;;;;;;;9.70;99.90;;;;;;5079016;28;19909;-81
2023/02/11 18:17:02;;;;;;;;;;;9.70;99.90;;;;;;5061007;28;20021;-81
2023/02/11 18:19:30;;;;;;;;;;;9.70;99.90;;;;;;5079324;28;19979;-81
2023/02/11 18:21:56;;;;;;;;;;;9.70;99.90;;;;;;5062217;28;19909;-80
2023/02/11 18:24:22;;;;;;;;;;;9.70;99.90;;;;;;5079684;28;19908;-81
2023/02/11 18:26:51;;;;;;;;;;;9.70;99.90;;;;;;5061432;28;19913;-81
2023/02/11 18:29:16;;;;;;;;;;;9.60;99.90;;;;;;5079878;28;19915;-81
2023/02/11 18:31:48;;;;;;;;;;;9.60;99.90;;;;;;5079236;28;19952;-81
2023/02/11 18:34:14;;;;;;;;;;;9.50;99.90;;;;;;5078513;28;20037;-80
2023/02/11 18:36:40;;;;;;;;;;;9.50;99.90;;;;;;5077954;28;19917;-81
2023/02/11 18:39:05;;;;;;;;;;;9.50;99.90;;;;;;5078615;28;19912;-81
2023/02/11 18:41:43;;;;;;;;;;;;;;;;;;;;;
2023/02/11 18:50:27;;;;;;;;;;;9.30;99.90;;;;;;5078871;28;19935;-81
2023/02/11 18:53:12;;;;;;;;;;;9.30;99.90;;;;;;5078739;28;19988;-81
2023/02/11 18:55:38;;;;;;;;;;;9.20;99.90;;;;;;5077655;28;19916;-81
2023/02/11 18:58:22;;;;;;;;;;;;;;;;;;;;;
2023/02/11 19:04:18;;;;;;;;;;;9.00;99.90;;;;;;5076770;28;20412;-80
2023/02/11 19:06:55;;;;;;;;;;;9.00;99.90;;;;;;5077673;28;19913;-81
2023/02/11 19:09:28;;;;;;;;;;;9.00;99.90;;;;;;5060001;28;19908;-81
2023/02/11 19:12:01;;;;;;;;;;;9.00;99.90;;;;;;5060076;28;19909;-79
2023/02/11 19:14:37;;;;;;;;;;;8.90;99.90;;;;;;5060080;28;19916;-81
2023/02/11 19:17:06;;;;;;;;;;;8.90;99.90;;;;;;5059245;28;20296;-81
2023/02/11 19:19:33;;;;;;;;;;;8.90;99.90;;;;;;5059710;28;19909;-81
2023/02/11 19:21:59;;;;;;;;;;;9.00;99.90;;;;;;5059239;28;19908;-81
2023/02/11 19:24:25;;;;;;;;;;;8.90;99.90;;;;;;5059658;28;19962;-79
2023/02/11 19:26:54;;;;;;;;;;;9.00;99.90;;;;;;5077580;28;19909;-79
2023/02/11 19:29:23;;;;;;;;;;;9.00;99.90;;;;;;5059235;28;20459;-81
2023/02/11 19:31:54;;;;;;;;;;;9.00;99.90;;;;;;5059390;28;19913;-81
2023/02/11 19:34:20;;;;;;;;;;;9.10;99.90;;;;;;5077001;28;19913;-80
2023/02/11 19:36:49;;;;;;;;;;;9.00;99.90;;;;;;5059507;28;19919;-81
2023/02/11 19:39:19;;;;;;;;;;;9.10;99.90;;;;;;5059403;28;19908;-81
2023/02/11 19:41:45;;;;;;;;;;;9.10;99.90;;;;;;5076317;28;20378;-81
2023/02/11 19:44:18;;;;;;;;;;;9.10;99.90;;;;;;5058993;28;19908;-81
2023/02/11 19:52:39;;;;;;;;;;;9.20;99.90;;;;;;5076610;28;20042;-81
2023/02/11 19:55:38;;;;;;;;;;;9.20;99.90;;;;;;5058262;28;19917;-80
2023/02/11 19:58:29;;;;;;;;;;;9.10;99.90;;;;;;5038180;28;19909;-81
2023/02/11 20:00:57;;;;;;;;;;;9.10;99.90;;;;;;5075426;28;19999;-81
2023/02/11 20:03:22;;;;;;;;;;;9.20;99.90;;;;;;5057371;28;19908;-81